createdAt,value
2022-07-25T00:01:54.527Z,18.10
2022-07-25T00:04:22.106Z,18.12
2022-07-25T00:06:48.979Z,18.05
2022-07-25T00:09:15.744Z,18.06
2022-07-25T00:11:42.707Z,18.01
2022-07-25T00:14:09.841Z,17.96
2022-07-25T00:16:36.938Z,17.96
2022-07-25T00:19:03.989Z,17.93
2022-07-25T00:21:30.688Z,17.90
2022-07-25T00:23:57.311Z,17.86
2022-07-25T00:26:24.259Z,17.77
2022-07-25T00:28:51.067Z,17.80
2022-07-25T00:31:17.815Z,17.81
2022-07-25T00:33:44.759Z,17.78
2022-07-25T00:36:11.527Z,17.75
2022-07-25T00:38:38.176Z,17.68
2022-07-25T00:41:05.634Z,17.65
2022-07-25T00:43:33.005Z,17.69
2022-07-25T00:45:59.936Z,17.63
2022-07-25T00:48:28.859Z,17.63
2022-07-25T00:50:56.611Z,17.61
2022-07-25T00:53:23.970Z,17.54
2022-07-25T00:55:51.629Z,17.54
2022-07-25T00:58:18.965Z,17.51
2022-07-25T01:00:46.018Z,17.50
2022-07-25T01:03:13.098Z,17.39
2022-07-25T01:05:40.040Z,17.38
2022-07-25T01:08:08.832Z,17.36
2022-07-25T01:10:36.169Z,17.40
2022-07-25T01:13:02.855Z,17.37
2022-07-25T01:15:30.248Z,17.35
2022-07-25T01:17:57.498Z,17.28
2022-07-25T01:20:26.867Z,17.30
2022-07-25T01:22:53.914Z,17.28
2022-07-25T01:25:21.315Z,17.19
2022-07-25T01:27:54.643Z,17.24
2022-07-25T01:30:23.778Z,17.21
2022-07-25T01:32:50.868Z,17.18
2022-07-25T01:35:17.715Z,17.15
2022-07-25T01:37:45.508Z,17.17
2022-07-25T01:40:13.804Z,17.14
2022-07-25T01:42:41.108Z,17.09
2022-07-25T01:45:08.795Z,17.08
2022-07-25T01:47:35.580Z,17.08
2022-07-25T01:50:02.248Z,17.07
2022-07-25T01:52:29.203Z,17.10
2022-07-25T01:54:55.959Z,17.07
2022-07-25T01:57:23.304Z,17.14
2022-07-25T01:59:57.087Z,17.08
2022-07-25T02:02:24.067Z,17.14
2022-07-25T02:04:51.022Z,17.14
2022-07-25T02:07:17.717Z,17.09
2022-07-25T02:09:44.405Z,17.11
2022-07-25T02:12:11.370Z,17.05
2022-07-25T02:14:38.321Z,17.10
2022-07-25T02:17:05.187Z,17.02
2022-07-25T02:19:32.521Z,17.10
2022-07-25T02:21:59.307Z,17.00
2022-07-25T02:24:26.229Z,17.06
2022-07-25T02:26:53.225Z,17.03
2022-07-25T02:29:21.910Z,17.03
2022-07-25T02:31:49.452Z,16.92
2022-07-25T02:34:16.485Z,16.95
2022-07-25T02:36:43.346Z,16.88
2022-07-25T02:39:10.180Z,16.94
2022-07-25T02:41:37.264Z,16.87
2022-07-25T02:44:05.452Z,16.92
2022-07-25T02:46:33.264Z,16.90
2022-07-25T02:49:00.364Z,16.90
2022-07-25T02:51:27.042Z,16.84
2022-07-25T02:54:08.883Z,16.89
2022-07-25T02:56:35.827Z,16.85
2022-07-25T02:59:02.542Z,16.86
2022-07-25T03:01:29.445Z,16.86
2022-07-25T03:03:56.548Z,16.84
2022-07-25T03:06:23.294Z,16.83
2022-07-25T03:08:50.022Z,16.82
2022-07-25T03:11:16.968Z,16.83
2022-07-25T03:13:43.640Z,16.83
2022-07-25T03:16:10.693Z,16.78
2022-07-25T03:18:38.812Z,16.77
2022-07-25T03:21:05.705Z,16.86
2022-07-25T03:23:32.425Z,16.88
2022-07-25T03:25:59.391Z,16.89
2022-07-25T03:28:26.209Z,16.89
2022-07-25T03:30:53.378Z,16.92
2022-07-25T03:33:20.358Z,16.89
2022-07-25T03:35:47.289Z,16.91
2022-07-25T03:38:14.188Z,16.94
2022-07-25T03:40:41.125Z,16.94
2022-07-25T03:43:07.860Z,16.98
2022-07-25T03:45:34.788Z,17.00
2022-07-25T03:48:02.126Z,17.02
2022-07-25T03:50:28.829Z,17.01
2022-07-25T03:52:55.504Z,16.96
2022-07-25T03:55:22.442Z,16.99
2022-07-25T03:57:49.178Z,16.96
2022-07-25T04:00:16.317Z,17.01
2022-07-25T04:02:43.378Z,16.98
2022-07-25T04:05:10.993Z,17.01
2022-07-25T04:07:38.305Z,17.05
2022-07-25T04:10:06.202Z,17.04
2022-07-25T04:12:33.313Z,17.07
2022-07-25T04:15:00.273Z,17.06
2022-07-25T04:17:27.299Z,17.06
2022-07-25T04:19:53.985Z,17.05
2022-07-25T04:22:22.527Z,17.02
2022-07-25T04:24:49.495Z,17.11
2022-07-25T04:27:16.762Z,17.12
2022-07-25T04:29:43.412Z,17.07
2022-07-25T04:32:10.479Z,17.14
2022-07-25T04:34:37.172Z,17.10
2022-07-25T04:37:03.814Z,17.14
2022-07-25T04:39:30.828Z,17.20
2022-07-25T04:41:57.504Z,17.18
2022-07-25T04:44:24.500Z,17.27
2022-07-25T04:46:51.522Z,17.30
2022-07-25T04:49:18.251Z,17.35
2022-07-25T04:51:44.967Z,17.35
2022-07-25T04:54:12.067Z,17.45
2022-07-25T04:56:38.766Z,17.56
2022-07-25T04:59:06.722Z,17.59
2022-07-25T05:01:34.983Z,17.58
2022-07-25T05:04:01.897Z,17.58
2022-07-25T05:06:28.628Z,17.60
2022-07-25T05:08:55.627Z,17.64
2022-07-25T05:11:22.559Z,17.67
2022-07-25T05:13:49.216Z,17.70
2022-07-25T05:16:16.357Z,17.70
2022-07-25T05:18:43.158Z,17.71
2022-07-25T05:21:11.606Z,17.73
2022-07-25T05:23:38.740Z,17.79
2022-07-25T05:26:05.735Z,17.81
2022-07-25T05:28:32.395Z,17.87
2022-07-25T05:30:59.519Z,17.89
2022-07-25T05:33:26.647Z,18.00
2022-07-25T05:35:53.387Z,18.08
2022-07-25T05:38:20.641Z,18.13
2022-07-25T05:40:48.146Z,18.21
2022-07-25T05:43:14.855Z,18.26
2022-07-25T05:45:41.949Z,18.33
2022-07-25T05:48:08.589Z,18.40
2022-07-25T05:50:37.243Z,18.41
2022-07-25T05:53:04.184Z,18.47
2022-07-25T05:55:30.969Z,18.50
2022-07-25T05:57:57.868Z,18.56
2022-07-25T06:00:25.318Z,18.55
2022-07-25T06:02:52.465Z,18.57
2022-07-25T06:05:19.222Z,18.59
2022-07-25T06:07:45.919Z,18.60
2022-07-25T06:10:12.907Z,18.59
2022-07-25T06:12:39.639Z,18.60
2022-07-25T06:15:07.623Z,18.64
2022-07-25T06:17:39.818Z,18.71
2022-07-25T06:20:07.565Z,18.68
2022-07-25T06:22:35.279Z,18.76
2022-07-25T06:25:03.165Z,18.80
2022-07-25T06:27:29.828Z,18.80
2022-07-25T06:29:56.757Z,18.83
2022-07-25T06:32:23.900Z,18.90
2022-07-25T06:34:51.337Z,18.98
2022-07-25T06:37:17.988Z,19.09
2022-07-25T06:39:46.064Z,19.26
2022-07-25T06:42:12.942Z,19.39
2022-07-25T06:44:39.932Z,19.56
2022-07-25T06:47:12.520Z,19.68
2022-07-25T06:49:40.834Z,19.88
2022-07-25T06:52:08.515Z,19.96
2022-07-25T06:54:35.446Z,20.08
2022-07-25T06:57:02.135Z,20.15
2022-07-25T06:59:29.027Z,20.19
2022-07-25T07:01:55.776Z,20.31
2022-07-25T07:04:22.522Z,20.35
2022-07-25T07:06:49.477Z,20.25
2022-07-25T07:09:16.144Z,20.28
2022-07-25T07:11:42.830Z,20.25
2022-07-25T07:14:10.069Z,20.22
2022-07-25T07:16:36.974Z,20.22
2022-07-25T07:19:04.198Z,20.40
2022-07-25T07:21:31.418Z,20.44
2022-07-25T07:23:58.106Z,20.48
2022-07-25T07:26:24.847Z,20.44
2022-07-25T07:28:54.465Z,20.57
2022-07-25T07:31:21.375Z,20.66
2022-07-25T07:33:48.141Z,20.63
2022-07-25T07:36:15.158Z,20.68
2022-07-25T07:38:42.002Z,20.69
2022-07-25T07:41:08.631Z,20.70
2022-07-25T07:43:35.901Z,20.70
2022-07-25T07:46:02.907Z,20.63
2022-07-25T07:48:33.618Z,20.60
2022-07-25T07:51:01.995Z,20.59
2022-07-25T07:53:48.082Z,20.52
2022-07-25T07:56:16.453Z,20.56
2022-07-25T07:58:43.271Z,20.59
2022-07-25T08:01:09.969Z,20.71
2022-07-25T08:03:37.404Z,20.80
2022-07-25T08:06:05.314Z,20.78
2022-07-25T08:08:32.043Z,20.92
2022-07-25T08:10:59.765Z,21.01
2022-07-25T08:13:31.789Z,21.15
2022-07-25T08:16:01.873Z,21.24
2022-07-25T08:18:35.058Z,21.33
2022-07-25T08:21:04.174Z,21.49
2022-07-25T08:23:32.034Z,21.61
2022-07-25T08:25:59.435Z,21.62
2022-07-25T08:28:26.439Z,21.57
2022-07-25T08:30:53.602Z,21.51
2022-07-25T08:33:20.458Z,21.52
2022-07-25T08:35:53.529Z,21.49
2022-07-25T08:38:21.875Z,21.42
2022-07-25T08:40:49.298Z,21.39
2022-07-25T08:43:17.595Z,21.38
2022-07-25T08:45:49.476Z,21.38
2022-07-25T08:48:22.270Z,21.51
2022-07-25T08:50:50.183Z,21.55
2022-07-25T08:53:35.581Z,21.55
2022-07-25T08:56:12.525Z,21.58
2022-07-25T08:58:43.998Z,21.66
2022-07-25T09:01:12.595Z,21.67
2022-07-25T09:03:40.347Z,21.73
2022-07-25T09:06:20.907Z,21.80
2022-07-25T09:08:52.446Z,21.91
2022-07-25T09:11:31.284Z,22.10
2022-07-25T09:14:11.191Z,22.10
2022-07-25T09:16:44.857Z,22.04
2022-07-25T09:19:11.845Z,21.94
2022-07-25T09:21:39.961Z,21.83
2022-07-25T09:24:18.520Z,21.71
2022-07-25T09:26:48.323Z,21.68
2022-07-25T09:29:19.119Z,21.73
2022-07-25T09:31:46.194Z,21.73
2022-07-25T09:34:12.971Z,21.84
2022-07-25T09:36:52.388Z,21.81
2022-07-25T09:39:19.130Z,22.07
2022-07-25T09:41:46.066Z,22.23
2022-07-25T09:44:22.959Z,22.25
2022-07-25T09:46:50.552Z,22.34
2022-07-25T09:49:17.476Z,22.24
2022-07-25T09:51:44.647Z,22.17
2022-07-25T09:54:11.843Z,22.15
2022-07-25T09:56:38.604Z,22.06
2022-07-25T09:59:06.251Z,21.99
2022-07-25T10:01:38.082Z,21.90
2022-07-25T10:04:37.601Z,21.98
2022-07-25T10:07:09.859Z,22.07
2022-07-25T10:09:48.232Z,22.08
2022-07-25T10:12:20.022Z,22.09
2022-07-25T10:15:10.614Z,22.05
2022-07-25T10:17:39.273Z,22.02
2022-07-25T10:20:10.383Z,21.97
2022-07-25T10:22:57.374Z,21.93
2022-07-25T10:25:25.174Z,21.95
2022-07-25T10:27:59.882Z,21.98
2022-07-25T10:30:40.752Z,21.98
2022-07-25T10:33:15.994Z,22.08
2022-07-25T10:35:44.098Z,22.02
2022-07-25T10:38:11.266Z,22.09
2022-07-25T10:40:39.734Z,22.22
2022-07-25T10:43:13.875Z,22.38
2022-07-25T10:45:43.114Z,22.50
2022-07-25T10:48:21.775Z,22.54
2022-07-25T10:51:07.921Z,22.61
2022-07-25T10:53:39.482Z,22.56
2022-07-25T10:56:27.328Z,22.56
2022-07-25T10:58:57.153Z,22.56
2022-07-25T11:01:36.629Z,22.50
2022-07-25T11:04:15.728Z,22.54
2022-07-25T11:06:43.274Z,22.59
2022-07-25T11:09:17.971Z,22.53
2022-07-25T11:11:50.732Z,22.56
2022-07-25T11:14:23.611Z,22.58
2022-07-25T11:16:53.242Z,22.60
2022-07-25T11:19:38.239Z,22.56
2022-07-25T11:22:05.046Z,22.50
2022-07-25T11:24:40.460Z,22.43
2022-07-25T11:27:12.564Z,22.43
2022-07-25T11:29:40.738Z,22.33
2022-07-25T11:32:10.814Z,22.23
2022-07-25T11:34:41.415Z,22.20
2022-07-25T11:37:11.656Z,22.18
2022-07-25T11:39:41.180Z,22.17
2022-07-25T11:42:19.744Z,22.24
2022-07-25T11:44:52.806Z,22.29
2022-07-25T11:47:30.005Z,22.36
2022-07-25T11:50:01.706Z,22.40
2022-07-25T11:52:33.980Z,22.58
2022-07-25T11:55:03.902Z,22.68
2022-07-25T11:57:33.837Z,22.71
2022-07-25T12:00:02.842Z,22.60
2022-07-25T12:02:39.125Z,22.61
2022-07-25T12:05:11.344Z,22.61
2022-07-25T12:07:46.407Z,22.56
2022-07-25T12:10:18.939Z,22.66
2022-07-25T12:12:51.882Z,22.75
2022-07-25T12:15:28.205Z,22.83
2022-07-25T12:17:56.949Z,22.87
2022-07-25T12:20:27.867Z,23.02
2022-07-25T12:22:58.166Z,23.14
2022-07-25T12:25:30.492Z,23.27
2022-07-25T12:27:58.957Z,23.25
2022-07-25T12:30:28.694Z,23.35
2022-07-25T12:32:56.824Z,23.39
2022-07-25T12:35:24.464Z,23.42
2022-07-25T12:37:52.530Z,23.48
2022-07-25T12:40:19.588Z,23.48
2022-07-25T12:42:46.786Z,23.56
2022-07-25T12:45:15.553Z,23.59
2022-07-25T12:47:44.099Z,23.61
2022-07-25T12:50:11.210Z,23.56
2022-07-25T12:52:38.438Z,23.43
2022-07-25T12:55:07.929Z,23.32
2022-07-25T12:57:36.552Z,23.22
2022-07-25T13:00:10.798Z,23.13
2022-07-25T13:02:38.029Z,23.14
2022-07-25T13:05:05.909Z,23.16
2022-07-25T13:07:33.272Z,23.22
2022-07-25T13:10:00.750Z,23.28
2022-07-25T13:12:27.837Z,23.44
2022-07-25T13:14:54.745Z,23.49
2022-07-25T13:17:27.001Z,23.65
2022-07-25T13:19:55.338Z,23.70
2022-07-25T13:22:22.478Z,23.79
2022-07-25T13:24:49.250Z,23.85
2022-07-25T13:27:19.709Z,23.96
2022-07-25T13:29:47.119Z,24.04
2022-07-25T13:32:14.147Z,24.02
2022-07-25T13:34:41.244Z,23.93
2022-07-25T13:37:08.170Z,23.88
2022-07-25T13:39:35.822Z,23.88
2022-07-25T13:42:03.154Z,23.86
2022-07-25T13:44:29.973Z,23.75
2022-07-25T13:46:58.607Z,23.65
2022-07-25T13:49:25.936Z,23.51
2022-07-25T13:51:52.799Z,23.49
2022-07-25T13:54:19.507Z,23.47
2022-07-25T13:56:47.493Z,23.42
2022-07-25T13:59:20.455Z,23.35
2022-07-25T14:01:48.565Z,23.31
2022-07-25T14:04:16.086Z,23.29
2022-07-25T14:06:43.148Z,23.21
2022-07-25T14:09:10.260Z,23.17
2022-07-25T14:11:37.618Z,23.11
2022-07-25T14:14:04.335Z,23.00
2022-07-25T14:16:31.204Z,23.01
2022-07-25T14:18:58.225Z,22.96
2022-07-25T14:21:25.463Z,22.85
2022-07-25T14:23:52.558Z,22.84
2022-07-25T14:26:19.692Z,22.76
2022-07-25T14:28:46.430Z,22.65
2022-07-25T14:31:13.374Z,22.66
2022-07-25T14:33:40.628Z,22.61
2022-07-25T14:36:09.897Z,22.64
2022-07-25T14:38:36.914Z,22.59
2022-07-25T14:41:06.663Z,22.72
2022-07-25T14:43:37.553Z,22.76
2022-07-25T14:46:05.392Z,22.79
2022-07-25T14:48:32.253Z,22.88
2022-07-25T14:50:59.089Z,22.92
2022-07-25T14:53:26.002Z,22.93
2022-07-25T14:55:52.710Z,22.97
2022-07-25T14:58:19.469Z,22.95
2022-07-25T15:00:47.531Z,23.04
2022-07-25T15:03:15.442Z,23.00
2022-07-25T15:05:42.131Z,23.04
2022-07-25T15:08:09.392Z,23.12
2022-07-25T15:10:36.114Z,23.03
2022-07-25T15:13:28.635Z,22.98
2022-07-25T15:15:49.743Z,22.95
2022-07-25T15:18:16.449Z,23.02
2022-07-25T15:20:43.196Z,22.98
2022-07-25T15:23:10.285Z,22.94
2022-07-25T15:28:24.476Z,22.84
2022-07-25T15:30:51.749Z,22.73
2022-07-25T15:33:19.210Z,22.61
2022-07-25T15:35:47.257Z,22.55
2022-07-25T15:38:15.727Z,22.47
2022-07-25T15:40:44.216Z,22.42
2022-07-25T15:43:11.880Z,22.37
2022-07-25T15:45:43.974Z,22.37
2022-07-25T15:48:12.754Z,22.36
2022-07-25T15:50:43.168Z,22.39
2022-07-25T15:53:10.552Z,22.39
2022-07-25T15:55:39.129Z,22.35
2022-07-25T15:58:06.541Z,22.46
2022-07-25T16:00:33.919Z,22.46
2022-07-25T16:03:01.081Z,22.51
2022-07-25T16:05:28.053Z,22.51
2022-07-25T16:07:54.758Z,22.50
2022-07-25T16:10:21.852Z,22.41
2022-07-25T16:12:49.059Z,22.42
2022-07-25T16:15:16.245Z,22.43
2022-07-25T16:17:43.426Z,22.43
2022-07-25T16:20:11.211Z,22.43
2022-07-25T16:22:39.368Z,22.43
2022-07-25T16:25:06.772Z,22.39
2022-07-25T16:27:33.713Z,22.36
2022-07-25T16:30:01.057Z,22.36
2022-07-25T16:32:28.085Z,22.35
2022-07-25T16:34:54.826Z,22.33
2022-07-25T16:37:21.652Z,22.33
2022-07-25T16:39:48.719Z,22.32
2022-07-25T16:42:15.524Z,22.29
2022-07-25T16:44:42.788Z,22.29
2022-07-25T16:47:10.053Z,22.27
2022-07-25T16:49:36.988Z,22.27
2022-07-25T16:52:03.718Z,22.25
2022-07-25T16:54:30.664Z,22.25
2022-07-25T16:56:59.810Z,22.24
2022-07-25T16:59:26.819Z,22.18
2022-07-25T17:01:54.024Z,22.24
2022-07-25T17:04:20.999Z,22.24
2022-07-25T17:06:47.912Z,22.24
2022-07-25T17:09:15.079Z,22.18
2022-07-25T17:11:41.977Z,22.23
2022-07-25T17:14:08.621Z,22.12
2022-07-25T17:16:35.647Z,22.20
2022-07-25T17:19:03.220Z,22.17
2022-07-25T17:21:30.241Z,22.15
2022-07-25T17:23:57.317Z,22.12
2022-07-25T17:26:24.162Z,22.07
2022-07-25T17:28:50.872Z,22.04
2022-07-25T17:31:18.158Z,22.02
2022-07-25T17:33:45.093Z,21.99
2022-07-25T17:36:11.922Z,21.97
2022-07-25T17:38:38.991Z,21.87
2022-07-25T17:41:06.238Z,21.88
2022-07-25T17:43:32.925Z,21.84
2022-07-25T17:45:59.996Z,21.79
2022-07-25T17:48:27.085Z,21.74
2022-07-25T17:50:53.880Z,21.68
2022-07-25T17:53:20.835Z,21.58
2022-07-25T17:55:47.638Z,21.59
2022-07-25T17:58:14.724Z,21.56
2022-07-25T18:00:41.727Z,21.52
2022-07-25T18:03:08.976Z,21.46
2022-07-25T18:05:35.726Z,21.46
2022-07-25T18:08:03.174Z,21.42
2022-07-25T18:10:30.723Z,21.40
2022-07-25T18:13:00.245Z,21.37
2022-07-25T18:15:27.099Z,21.33
2022-07-25T18:17:54.187Z,21.33
2022-07-25T18:20:21.248Z,21.32
2022-07-25T18:22:48.075Z,21.29
2022-07-25T18:25:15.286Z,21.27
2022-07-25T18:27:44.526Z,21.23
2022-07-25T18:30:11.931Z,21.24
2022-07-25T18:32:39.516Z,21.23
2022-07-25T18:35:07.858Z,21.22
2022-07-25T18:37:36.982Z,21.19
2022-07-25T18:40:05.853Z,21.17
2022-07-25T18:42:32.885Z,21.17
2022-07-25T18:45:00.710Z,21.15
2022-07-25T18:47:30.967Z,21.13
2022-07-25T18:49:59.712Z,21.09
2022-07-25T18:52:27.409Z,21.01
2022-07-25T18:54:54.563Z,21.05
2022-07-25T18:57:21.328Z,21.00
2022-07-25T18:59:48.233Z,20.99
2022-07-25T19:02:15.404Z,20.91
2022-07-25T19:04:42.131Z,20.90
2022-07-25T19:07:09.228Z,20.81
2022-07-25T19:09:36.368Z,20.80
2022-07-25T19:12:03.297Z,20.82
2022-07-25T19:14:30.755Z,20.79
2022-07-25T19:16:59.026Z,20.75
2022-07-25T19:19:26.098Z,20.67
2022-07-25T19:21:53.327Z,20.67
2022-07-25T19:24:20.768Z,20.71
2022-07-25T19:26:48.767Z,20.73
2022-07-25T19:29:16.713Z,20.75
2022-07-25T19:31:44.389Z,20.70
2022-07-25T19:34:11.455Z,20.75
2022-07-25T19:36:38.697Z,20.77
2022-07-25T19:39:06.308Z,20.78
2022-07-25T19:41:33.638Z,20.79
2022-07-25T19:44:00.555Z,20.78
2022-07-25T19:46:31.364Z,20.80
2022-07-25T19:48:58.361Z,20.64
2022-07-25T19:51:25.448Z,20.74
2022-07-25T19:53:52.767Z,20.80
2022-07-25T19:56:20.156Z,20.79
2022-07-25T19:58:47.009Z,20.78
2022-07-25T20:01:14.491Z,20.78
2022-07-25T20:03:41.875Z,20.77
2022-07-25T20:06:09.149Z,20.79
2022-07-25T20:08:39.373Z,20.77
2022-07-25T20:11:07.617Z,20.74
2022-07-25T20:13:35.149Z,20.65
2022-07-25T20:16:03.862Z,20.61
2022-07-25T20:18:31.071Z,20.65
2022-07-25T20:20:58.390Z,20.63
2022-07-25T20:23:25.748Z,20.62
2022-07-25T20:25:52.785Z,20.60
2022-07-25T20:28:19.809Z,20.58
2022-07-25T20:30:46.606Z,20.56
2022-07-25T20:33:13.779Z,20.53
2022-07-25T20:35:40.641Z,20.52
2022-07-25T20:38:09.778Z,20.51
2022-07-25T20:40:46.404Z,20.49
2022-07-25T20:43:16.833Z,20.48
2022-07-25T20:45:44.040Z,20.44
2022-07-25T20:48:10.848Z,20.40
2022-07-25T20:50:37.917Z,20.35
2022-07-25T20:53:06.445Z,20.38
2022-07-25T20:55:34.187Z,20.31
2022-07-25T20:58:01.712Z,20.30
2022-07-25T21:00:30.555Z,20.33
2022-07-25T21:02:58.426Z,20.24
2022-07-25T21:05:26.141Z,20.26
2022-07-25T21:07:53.737Z,20.31
2022-07-25T21:10:20.982Z,20.28
2022-07-25T21:12:48.040Z,20.29
2022-07-25T21:15:15.387Z,20.28
2022-07-25T21:17:42.229Z,20.20
2022-07-25T21:20:11.739Z,20.25
2022-07-25T21:22:39.545Z,20.25
2022-07-25T21:25:07.259Z,20.23
2022-07-25T21:27:34.427Z,20.22
2022-07-25T21:30:01.757Z,20.12
2022-07-25T21:32:28.455Z,20.11
2022-07-25T21:34:55.235Z,20.08
2022-07-25T21:37:22.225Z,20.12
2022-07-25T21:39:48.863Z,20.03
2022-07-25T21:42:15.677Z,20.01
2022-07-25T21:44:44.030Z,20.00
2022-07-25T21:47:12.432Z,20.00
2022-07-25T21:49:57.734Z,19.97
2022-07-25T21:52:30.155Z,19.94
2022-07-25T21:55:02.665Z,19.89
2022-07-25T21:57:29.740Z,19.92
2022-07-25T21:59:56.458Z,19.86
2022-07-25T22:02:23.727Z,19.86
2022-07-25T22:04:50.930Z,19.81
2022-07-25T22:07:18.072Z,19.76
2022-07-25T22:09:45.041Z,19.66
2022-07-25T22:12:12.452Z,19.65
2022-07-25T22:14:39.204Z,19.55
2022-07-25T22:17:05.969Z,19.48
2022-07-25T22:19:33.390Z,19.45
2022-07-25T22:22:00.185Z,19.46
2022-07-25T22:24:27.012Z,19.37
2022-07-25T22:26:54.045Z,19.25
2022-07-25T22:29:21.098Z,19.25
2022-07-25T22:31:47.847Z,19.24
2022-07-25T22:34:14.893Z,19.21
2022-07-25T22:36:41.561Z,19.17
2022-07-25T22:39:08.524Z,19.12
2022-07-25T22:41:35.991Z,19.07
2022-07-25T22:44:02.995Z,19.01
2022-07-25T22:46:30.658Z,18.99
2022-07-25T22:48:58.870Z,18.93
2022-07-25T22:51:26.580Z,18.84
2022-07-25T22:53:53.934Z,18.84
2022-07-25T22:56:21.801Z,18.73
2022-07-25T22:58:48.778Z,18.73
2022-07-25T23:01:17.528Z,18.67
2022-07-25T23:03:45.342Z,18.68
2022-07-25T23:06:12.666Z,18.63
2022-07-25T23:08:39.439Z,18.59
2022-07-25T23:11:06.515Z,18.50
2022-07-25T23:13:34.321Z,18.50
2022-07-25T23:16:03.188Z,18.45
2022-07-25T23:18:31.214Z,18.41
2022-07-25T23:20:58.191Z,18.29
2022-07-25T23:23:25.074Z,18.32
2022-07-25T23:25:52.476Z,18.28
2022-07-25T23:28:19.137Z,18.21
2022-07-25T23:30:45.791Z,18.17
2022-07-25T23:33:12.855Z,18.13
2022-07-25T23:35:39.521Z,18.09
2022-07-25T23:38:06.178Z,18.03
2022-07-25T23:40:33.224Z,18.01
2022-07-25T23:43:00.103Z,17.97
2022-07-25T23:45:28.089Z,17.95
2022-07-25T23:47:56.549Z,17.89
2022-07-25T23:50:23.882Z,17.87
2022-07-25T23:52:51.090Z,17.85
2022-07-25T23:55:18.158Z,17.81
2022-07-25T23:57:44.839Z,17.76
